Time;durP1;ratioP1;P1;durP2;ratioP2;P2;SDS_P1;SDS_P2;PMS_P1;PMS_P2;Temp;Humidity;BMP_temperature;BMP_pressure;BME280_temperature;BME280_humidity;BME280_pressure;Samples;Min_cycle;Max_cycle;Signal;HPM_P1;HPM_P2
2022/09/01 00:02:14;;;;;;;3.05;1.10;;;;;;;16.86;57.21;101992.09;5065776;28;20021;-62
2022/09/01 00:04:42;;;;;;;1.65;1.00;;;;;;;16.85;57.69;101994.69;5076797;28;20024;-62
2022/09/01 00:07:08;;;;;;;3.50;0.93;;;;;;;16.84;57.84;101988.56;5089085;28;20116;-63
2022/09/01 00:09:34;;;;;;;2.53;1.13;;;;;;;16.79;58.30;101980.59;5089259;28;20012;-62
2022/09/01 00:12:01;;;;;;;1.10;1.00;;;;;;;16.76;58.63;101980.53;5088315;28;20032;-62
2022/09/01 00:14:32;;;;;;;3.35;1.08;;;;;;;16.73;58.72;101980.44;5088707;28;20439;-62
2022/09/01 00:17:08;;;;;;;1.15;0.90;;;;;;;16.69;59.68;101981.22;5088884;28;20032;-63
2022/09/01 00:19:34;;;;;;;3.25;1.00;;;;;;;16.63;59.76;101970.59;5089533;28;20438;-62
2022/09/01 00:22:00;;;;;;;1.33;0.77;;;;;;;16.58;60.08;101974.84;5088990;28;20111;-62
2022/09/01 00:24:26;;;;;;;2.13;0.90;;;;;;;16.50;60.98;101972.91;5088957;28;20077;-62
2022/09/01 00:26:53;;;;;;;1.83;1.05;;;;;;;16.45;61.25;101979.75;5089452;28;20804;-62
2022/09/01 00:29:19;;;;;;;2.22;1.20;;;;;;;16.40;61.84;101981.38;5088490;28;20028;-63
2022/09/01 00:31:44;;;;;;;2.67;0.95;;;;;;;16.33;61.89;101980.34;5088858;28;20148;-62
2022/09/01 00:34:10;;;;;;;1.98;1.23;;;;;;;16.27;63.12;101980.16;5088608;28;20055;-63
2022/09/01 00:36:35;;;;;;;2.60;1.10;;;;;;;16.21;63.29;101980.88;5088290;28;20016;-62
2022/09/01 00:39:02;;;;;;;1.52;0.90;;;;;;;16.16;63.66;101987.72;5088278;28;20020;-62
2022/09/01 00:41:31;;;;;;;2.65;1.20;;;;;;;16.15;63.70;101972.88;5088119;28;20042;-63
2022/09/01 00:44:04;;;;;;;1.70;0.93;;;;;;;16.14;63.78;101978.94;5074301;28;20044;-62
2022/09/01 00:46:51;;;;;;;2.17;1.10;;;;;;;16.11;64.49;101976.25;5088457;28;20024;-63
2022/09/01 00:49:22;;;;;;;3.33;1.17;;;;;;;16.07;64.65;101978.78;5088007;28;20028;-62
2022/09/01 00:51:52;;;;;;;2.83;1.13;;;;;;;16.05;65.49;101979.56;5088662;28;20043;-61
2022/09/01 00:54:23;;;;;;;1.90;0.73;;;;;;;16.03;65.74;101982.16;5087788;28;20491;-63
2022/09/01 00:56:49;;;;;;;;;;;;;;;15.99;66.13;101979.38;5088630;28;20028;-62
2022/09/01 00:59:16;;;;;;;2.80;1.40;;;;;;;15.94;65.74;101977.53;5088206;28;19923;-62
2022/09/01 01:01:41;;;;;;;1.70;1.05;;;;;;;15.91;66.33;101977.44;5087502;28;20139;-63
2022/09/01 01:04:13;;;;;;;2.80;1.00;;;;;;;15.92;66.57;101975.72;5088197;28;20172;-63
2022/09/01 01:06:42;;;;;;;3.00;1.30;;;;;;;15.87;66.85;101972.06;5088488;28;20130;-62
2022/09/01 01:09:08;;;;;;;4.30;1.40;;;;;;;15.82;67.44;101970.25;5088354;28;20043;-62
2022/09/01 01:11:33;;;;;;;2.78;1.60;;;;;;;15.75;67.67;101973.53;5087314;28;20464;-62
2022/09/01 01:14:09;;;;;;;2.78;1.35;;;;;;;15.71;68.22;101979.47;5088279;28;20099;-61
2022/09/01 01:16:35;;;;;;;2.10;1.20;;;;;;;15.66;67.89;101966.31;5087808;28;20024;-62
2022/09/01 01:19:01;;;;;;;1.88;1.20;;;;;;;15.62;68.88;101969.66;5088325;28;20058;-62
2022/09/01 01:24:30;;;;;;;1.95;1.08;;;;;;;15.53;69.70;101970.28;5087452;28;20105;-63
2022/09/01 01:26:58;;;;;;;1.92;1.20;;;;;;;15.51;69.35;101966.72;5088016;28;20106;-62
2022/09/01 01:29:24;;;;;;;3.58;1.33;;;;;;;15.52;69.51;101968.53;5087361;28;20028;-62
2022/09/01 01:31:52;;;;;;;1.73;1.27;;;;;;;15.52;69.79;101965.91;5087475;28;20350;-63
2022/09/01 01:34:19;;;;;;;1.85;1.27;;;;;;;15.50;69.57;101964.97;5073937;28;20391;-62
2022/09/01 01:36:46;;;;;;;1.40;1.13;;;;;;;15.47;70.31;101968.38;5073182;28;20434;-62
2022/09/01 01:39:17;;;;;;;2.88;1.60;;;;;;;15.44;70.35;101967.38;5088044;28;20035;-62
2022/09/01 01:41:47;;;;;;;3.08;0.98;;;;;;;15.40;70.60;101973.38;5087485;28;20486;-63
2022/09/01 01:44:14;;;;;;;2.90;1.33;;;;;;;15.36;70.90;101973.25;5080682;28;20028;-63
2022/09/01 01:46:43;;;;;;;1.67;1.10;;;;;;;15.30;71.47;101974.81;5074615;28;20034;-62
2022/09/01 01:49:12;;;;;;;2.17;1.15;;;;;;;15.24;71.86;101973.78;5087923;28;20024;-62
2022/09/01 01:51:38;;;;;;;1.88;1.17;;;;;;;15.16;72.13;101977.00;5087797;28;20588;-62
2022/09/01 01:54:04;;;;;;;2.63;1.08;;;;;;;15.09;72.31;101979.41;5087650;28;20042;-62
2022/09/01 01:56:31;;;;;;;2.40;1.20;;;;;;;15.08;72.73;101981.97;5086859;28;20109;-62
2022/09/01 01:58:58;;;;;;;2.72;1.48;;;;;;;15.05;72.88;101982.78;5081745;28;20028;-63
2022/09/01 02:01:27;;;;;;;4.38;1.35;;;;;;;15.02;73.28;101985.25;5062776;28;20493;-62
2022/09/01 02:03:53;;;;;;;4.10;1.42;;;;;;;15.00;73.65;101984.34;5072196;28;20082;-62
2022/09/01 02:06:20;;;;;;;3.45;1.58;;;;;;;15.00;73.79;101973.91;5063414;28;20020;-62
2022/09/01 02:08:45;;;;;;;3.17;1.45;;;;;;;14.98;74.23;101976.47;5078007;28;20069;-62
2022/09/01 02:11:12;;;;;;;3.50;1.33;;;;;;;14.96;73.79;101974.66;5077652;28;20532;-63
2022/09/01 02:13:37;;;;;;;2.00;1.40;;;;;;;14.96;73.67;101979.88;5077857;28;20024;-62
2022/09/01 02:16:11;;;;;;;2.63;1.20;;;;;;;14.93;74.40;101978.03;5074654;28;20031;-62
2022/09/01 02:18:41;;;;;;;2.78;1.25;;;;;;;14.91;74.34;101986.66;5087013;28;20031;-62
2022/09/01 02:21:10;;;;;;;3.25;1.50;;;;;;;14.87;75.05;101980.47;5083734;28;20365;-62
2022/09/01 02:23:39;;;;;;;2.33;1.15;;;;;;;14.87;74.79;101983.06;5076391;28;20023;-62
2022/09/01 02:26:09;;;;;;;2.53;1.35;;;;;;;14.88;74.67;101980.50;5086559;28;20537;-62
2022/09/01 02:28:38;;;;;;;4.75;1.60;;;;;;;14.87;74.74;101978.75;5078588;28;20028;-62
2022/09/01 02:31:07;;;;;;;5.28;1.65;;;;;;;14.84;75.23;101978.63;5080576;28;20560;-62
2022/09/01 02:33:33;;;;;;;4.20;1.30;;;;;;;14.84;74.76;101973.41;5087375;28;20586;-62
2022/09/01 02:36:02;;;;;;;2.42;1.20;;;;;;;14.81;75.30;101978.53;5089752;28;20062;-62
2022/09/01 02:38:28;;;;;;;1.40;1.30;;;;;;;14.81;75.45;101980.22;5091147;28;20028;-61
2022/09/01 02:40:57;;;;;;;2.30;1.15;;;;;;;14.78;75.57;101983.63;5091055;28;20023;-62
2022/09/01 02:43:26;;;;;;;3.55;1.70;;;;;;;14.75;75.93;101980.94;5090517;28;20088;-62
2022/09/01 02:45:54;;;;;;;1.60;1.50;;;;;;;14.74;75.82;101984.34;5091172;28;20016;-62
2022/09/01 02:48:23;;;;;;;1.92;1.30;;;;;;;14.72;75.72;101979.09;5091193;28;20027;-62
2022/09/01 02:50:49;;;;;;;2.17;1.38;;;;;;;14.72;75.65;101978.19;5090859;28;20024;-62
2022/09/01 02:53:15;;;;;;;1.38;1.27;;;;;;;14.70;75.94;101970.31;5090493;28;20782;-63
2022/09/01 02:55:41;;;;;;;2.75;1.50;;;;;;;14.68;75.94;101965.91;5090553;28;20027;-62
2022/09/01 02:58:09;;;;;;;2.42;1.20;;;;;;;14.67;75.67;101969.31;5090715;28;20060;-62
2022/09/01 03:00:38;;;;;;;3.08;1.42;;;;;;;14.65;75.91;101970.19;5090715;28;20478;-62
2022/09/01 03:03:05;;;;;;;4.00;1.75;;;;;;;14.61;76.43;101963.06;5090888;28;20050;-62
2022/09/01 03:05:33;;;;;;;3.47;1.30;;;;;;;14.62;75.67;101957.03;5090378;28;20047;-62
2022/09/01 03:08:01;;;;;;;1.92;1.30;;;;;;;14.62;75.80;101964.88;5091280;28;20012;-61
2022/09/01 03:10:31;;;;;;;4.28;1.77;;;;;;;14.61;76.31;101954.34;5090515;28;20066;-62
2022/09/01 03:12:59;;;;;;;1.30;1.20;;;;;;;14.58;76.61;101957.75;5090751;28;20039;-62
2022/09/01 03:15:26;;;;;;;2.35;1.50;;;;;;;14.55;76.29;101955.06;5090885;28;20338;-62
2022/09/01 03:17:51;;;;;;;2.28;1.35;;;;;;;14.53;76.99;101956.72;5090502;28;20077;-63
2022/09/01 03:20:18;;;;;;;2.75;1.50;;;;;;;14.50;76.95;101947.06;5089984;28;20028;-63
2022/09/01 03:22:46;;;;;;;2.65;1.60;;;;;;;14.49;76.96;101957.44;5090052;28;20035;-62
2022/09/01 03:25:12;;;;;;;1.95;1.40;;;;;;;14.48;77.39;101960.91;5090500;28;20488;-62
2022/09/01 03:27:37;;;;;;;3.28;1.55;;;;;;;14.46;77.17;101962.56;5089941;28;20023;-62
2022/09/01 03:30:03;;;;;;;2.55;1.40;;;;;;;14.41;77.36;101958.06;5090187;28;20031;-63
2022/09/01 03:32:28;;;;;;;3.95;1.40;;;;;;;14.41;77.36;101962.41;5090153;28;20482;-62
2022/09/01 03:34:53;;;;;;;4.15;1.70;;;;;;;14.41;77.08;101963.28;5090338;28;20055;-62
2022/09/01 03:37:19;;;;;;;2.00;1.52;;;;;;;14.40;77.11;101961.53;5090413;28;20032;-62
2022/09/01 03:39:45;;;;;;;5.18;1.80;;;;;;;14.38;77.34;101954.47;5089745;28;20107;-62
2022/09/01 03:42:11;;;;;;;2.55;1.33;;;;;;;14.35;78.00;101957.88;5089343;28;20766;-62
2022/09/01 03:44:39;;;;;;;1.40;1.30;;;;;;;14.34;77.92;101963.03;5089695;28;20035;-62
2022/09/01 03:47:09;;;;;;;1.60;1.50;;;;;;;14.34;78.04;101960.41;5089715;28;20031;-62
2022/09/01 03:49:38;;;;;;;2.70;1.67;;;;;;;14.32;78.27;101957.75;5090145;28;20024;-62
2022/09/01 03:52:04;;;;;;;2.10;1.80;;;;;;;14.32;77.99;101959.50;5089066;28;20032;-62
2022/09/01 03:54:31;;;;;;;2.85;1.30;;;;;;;14.31;78.42;101956.00;5089684;28;20124;-62
2022/09/01 03:56:58;;;;;;;1.80;1.63;;;;;;;14.29;78.70;101962.88;5089818;28;20028;-62
2022/09/01 03:59:24;;;;;;;3.85;1.80;;;;;;;14.26;78.77;101952.34;5089289;28;20032;-62
2022/09/01 04:01:49;;;;;;;4.18;1.90;;;;;;;14.23;79.12;101953.13;5089369;28;20034;-61
2022/09/01 04:04:15;;;;;;;2.78;1.52;;;;;;;14.26;79.38;101952.34;5089290;28;20020;-62
2022/09/01 04:06:42;;;;;;;2.47;1.80;;;;;;;14.27;79.14;101959.31;5089007;28;20201;-62
2022/09/01 04:09:09;;;;;;;2.95;1.50;;;;;;;14.27;78.93;101951.50;5086747;28;20171;-62
2022/09/01 04:11:38;;;;;;;2.90;1.70;;;;;;;14.27;78.96;101955.00;5077764;28;20034;-62
2022/09/01 04:14:04;;;;;;;1.83;1.63;;;;;;;14.28;78.50;101950.69;5074976;28;20108;-62
2022/09/01 04:19:18;;;;;;;2.03;1.58;;;;;;;14.25;78.47;101951.44;5088961;28;20046;-61
2022/09/01 04:21:45;;;;;;;2.42;1.50;;;;;;;14.22;78.35;101953.06;5089395;28;20491;-62
2022/09/01 04:24:13;;;;;;;3.30;1.63;;;;;;;14.21;78.11;101956.53;5089065;28;20039;-62
2022/09/01 04:26:39;;;;;;;2.13;1.50;;;;;;;14.19;77.63;101955.56;5088993;28;20043;-61
2022/09/01 04:29:08;;;;;;;3.75;2.10;;;;;;;14.20;77.70;101957.34;5088993;28;20036;-62
2022/09/01 04:31:35;;;;;;;2.22;1.48;;;;;;;14.18;77.48;101954.69;5088969;28;20027;-61
2022/09/01 04:34:01;;;;;;;2.90;1.58;;;;;;;14.16;77.55;101958.94;5088950;28;20031;-63
2022/09/01 04:36:29;;;;;;;2.17;1.42;;;;;;;14.11;77.58;101958.81;5088338;28;20137;-62
2022/09/01 04:39:00;;;;;;;3.15;1.80;;;;;;;14.08;77.59;101958.69;5087756;28;20392;-63
2022/09/01 04:41:30;;;;;;;3.05;1.60;;;;;;;14.08;77.45;101957.81;5075022;28;20036;-62
2022/09/01 04:43:57;;;;;;;2.97;1.58;;;;;;;14.03;77.45;101955.91;5085930;28;20473;-62
2022/09/01 04:46:28;;;;;;;2.47;1.70;;;;;;;14.02;77.85;101958.47;5081603;28;20420;-62
2022/09/01 04:48:54;;;;;;;3.15;1.50;;;;;;;13.99;77.51;101958.38;5074508;28;20111;-62
2022/09/01 04:51:21;;;;;;;5.65;1.90;;;;;;;13.97;77.19;101960.03;5085328;28;20114;-62
2022/09/01 04:53:47;;;;;;;2.90;1.80;;;;;;;13.96;77.46;101960.88;5072803;28;20035;-62
2022/09/01 04:56:22;;;;;;;3.20;1.73;;;;;;;13.91;77.68;101956.38;5087723;28;20028;-62
2022/09/01 04:58:49;;;;;;;4.72;1.90;;;;;;;13.86;77.97;101957.94;5080850;28;20030;-62
2022/09/01 05:01:16;;;;;;;5.00;1.60;;;;;;;13.87;77.83;101964.03;5075431;28;20478;-62
2022/09/01 05:03:44;;;;;;;2.55;1.38;;;;;;;13.84;78.22;101964.78;5084957;28;20024;-62
2022/09/01 05:06:18;;;;;;;2.08;1.20;;;;;;;13.83;78.17;101963.03;5060604;28;20062;-62
2022/09/01 05:08:46;;;;;;;3.05;1.70;;;;;;;13.81;78.34;101964.69;5088231;28;20035;-62
2022/09/01 05:11:16;;;;;;;2.20;1.52;;;;;;;13.81;78.29;101967.28;5087989;28;20035;-62
2022/09/01 05:13:44;;;;;;;4.30;1.50;;;;;;;13.78;78.13;101967.19;5083726;28;20073;-62
2022/09/01 05:16:14;;;;;;;1.92;1.35;;;;;;;13.77;78.26;101963.69;5053921;28;20021;-62
2022/09/01 05:18:43;;;;;;;2.40;1.75;;;;;;;13.78;78.43;101969.78;5048531;28;20024;-61
2022/09/01 05:21:09;;;;;;;3.00;1.80;;;;;;;13.76;78.79;101968.84;5049298;28;20495;-62
2022/09/01 05:23:36;;;;;;;4.22;1.30;;;;;;;13.73;78.54;101966.09;5046723;28;20021;-61
2022/09/01 05:26:13;;;;;;;2.50;1.85;;;;;;;13.74;78.67;101965.28;5051433;28;20028;-62
2022/09/01 05:28:40;;;;;;;3.72;2.03;;;;;;;13.75;78.02;101969.66;5058629;28;20279;-62
2022/09/01 05:31:05;;;;;;;2.90;1.40;;;;;;;13.75;78.28;101974.88;5052456;28;20457;-62
2022/09/01 05:33:33;;;;;;;3.90;1.60;;;;;;;13.74;78.25;101973.09;5047476;28;20394;-62
2022/09/01 05:36:00;;;;;;;3.72;1.65;;;;;;;13.74;78.39;101968.78;5047681;28;20487;-61
2022/09/01 05:38:25;;;;;;;3.15;1.60;;;;;;;13.76;78.21;101974.06;5047957;28;20503;-62
2022/09/01 05:41:03;;;;;;;2.28;1.60;;;;;;;13.74;78.25;101974.00;5066275;28;20111;-62
2022/09/01 05:43:30;;;;;;;2.42;1.38;;;;;;;13.74;78.13;101974.00;5086548;28;20129;-62
2022/09/01 05:45:57;;;;;;;3.47;1.73;;;;;;;13.74;78.46;101968.78;5087716;28;20257;-62
2022/09/01 05:48:23;;;;;;;3.92;1.48;;;;;;;13.74;77.99;101978.31;5087545;28;20016;-62
2022/09/01 05:50:49;;;;;;;3.30;1.35;;;;;;;13.74;77.95;101979.22;5087272;28;20028;-62
2022/09/01 05:53:16;;;;;;;2.58;1.60;;;;;;;13.76;78.17;101974.06;5074210;28;20032;-62
2022/09/01 05:55:45;;;;;;;5.45;1.55;;;;;;;13.76;78.31;101977.53;5071041;28;20095;-62
2022/09/01 05:58:13;;;;;;;4.35;2.80;;;;;;;13.78;78.13;101982.81;5066117;28;20473;-62
2022/09/01 06:00:45;;;;;;;3.30;1.90;;;;;;;13.81;78.38;101982.94;5058074;28;20210;-62
2022/09/01 06:03:13;;;;;;;4.88;1.70;;;;;;;13.87;77.95;101977.94;5059590;28;20121;-62
2022/09/01 06:05:39;;;;;;;4.75;2.00;;;;;;;13.97;77.78;101986.09;5061799;28;20024;-62
2022/09/01 06:08:07;;;;;;;2.95;1.60;;;;;;;14.09;77.39;101978.69;5051731;28;20021;-63
2022/09/01 06:10:38;;;;;;;4.18;1.42;;;;;;;14.21;76.76;101974.78;5065985;28;20020;-62
2022/09/01 06:13:05;;;;;;;3.42;1.30;;;;;;;14.34;76.52;101981.28;5058314;28;20181;-62
2022/09/01 06:15:31;;;;;;;2.72;1.60;;;;;;;14.37;75.85;101984.88;5056043;28;20040;-61
2022/09/01 06:17:57;;;;;;;4.05;1.70;;;;;;;14.36;75.07;101985.72;5057952;28;20159;-62
2022/09/01 06:20:23;;;;;;;5.45;1.80;;;;;;;14.34;75.60;101987.38;5051702;28;20333;-61
2022/09/01 06:22:51;;;;;;;5.55;1.95;;;;;;;14.29;76.17;101976.81;5054004;28;20069;-62
2022/09/01 06:25:17;;;;;;;2.40;1.70;;;;;;;14.25;76.38;101987.06;5054535;28;20457;-62
2022/09/01 06:27:43;;;;;;;4.20;1.88;;;;;;;14.28;76.74;101989.78;5053658;28;20035;-61
2022/09/01 06:30:16;;;;;;;4.10;1.80;;;;;;;14.35;76.78;101983.97;5047543;28;20087;-62
2022/09/01 06:32:43;;;;;;;4.05;1.65;;;;;;;14.39;76.08;101985.81;5048912;28;20029;-62
2022/09/01 06:35:14;;;;;;;2.30;1.65;;;;;;;14.40;76.07;101991.94;5050890;28;20052;-62
2022/09/01 06:37:42;;;;;;;5.72;2.30;;;;;;;14.44;75.65;101990.31;5049289;28;20169;-62
2022/09/01 06:40:15;;;;;;;5.97;1.90;;;;;;;14.52;76.21;101991.44;5047804;28;20062;-63
2022/09/01 06:42:42;;;;;;;4.72;1.77;;;;;;;14.61;75.30;101983.03;5058365;28;20072;-62
2022/09/01 06:45:09;;;;;;;4.35;1.92;;;;;;;14.64;75.57;101991.00;5053764;28;20036;-62
2022/09/01 06:47:35;;;;;;;3.78;1.85;;;;;;;14.71;75.52;101992.09;5044551;28;20381;-63
2022/09/01 06:50:01;;;;;;;4.28;1.73;;;;;;;14.81;75.30;101988.03;5053487;28;20028;-62
2022/09/01 06:52:26;;;;;;;6.95;1.70;;;;;;;14.92;75.14;101991.03;5045969;28;20033;-62
2022/09/01 06:54:52;;;;;;;3.60;2.00;;;;;;;15.07;75.06;101999.38;5049895;28;20501;-62
2022/09/01 06:57:18;;;;;;;1.80;1.60;;;;;;;15.25;74.35;101995.56;5062749;28;20086;-63
2022/09/01 06:59:44;;;;;;;2.47;1.67;;;;;;;15.46;73.34;101994.44;5057101;28;20481;-62
2022/09/01 07:02:15;;;;;;;4.15;2.05;;;;;;;15.73;72.96;101993.47;5065537;28;20032;-62
2022/09/01 07:04:42;;;;;;;6.05;1.98;;;;;;;16.00;73.00;101992.53;5064966;28;20074;-61
2022/09/01 07:07:09;;;;;;;3.22;1.88;;;;;;;16.28;71.92;101998.50;5061606;28;20139;-62
2022/09/01 07:09:35;;;;;;;2.05;1.40;;;;;;;16.56;70.77;102003.59;5058115;28;20032;-62
2022/09/01 07:12:02;;;;;;;3.13;1.88;;;;;;;16.88;70.79;101997.38;5061611;28;20021;-62
2022/09/01 07:14:28;;;;;;;4.13;1.60;;;;;;;17.20;70.85;101999.88;5056279;28;20026;-62
2022/09/01 07:16:54;;;;;;;3.67;1.70;;;;;;;17.48;68.15;102000.53;5052905;28;20021;-62
2022/09/01 07:19:20;;;;;;;3.17;1.58;;;;;;;17.72;66.29;102001.88;5051216;28;20421;-62
2022/09/01 07:21:45;;;;;;;4.13;1.95;;;;;;;18.02;65.16;102004.22;5055222;28;20308;-62
2022/09/01 07:24:11;;;;;;;2.75;1.73;;;;;;;18.20;63.56;102003.72;5059898;28;20039;-62
2022/09/01 07:26:39;;;;;;;3.40;1.55;;;;;;;18.15;63.06;102000.13;5067886;28;20059;-62
2022/09/01 07:29:06;;;;;;;3.15;2.03;;;;;;;18.35;64.04;101997.84;5064127;28;20032;-62
2022/09/01 07:31:35;;;;;;;3.85;1.90;;;;;;;18.59;62.72;102007.91;5062253;28;20020;-61
2022/09/01 07:34:04;;;;;;;3.25;1.88;;;;;;;18.88;60.83;102008.34;5067015;28;20056;-62
2022/09/01 07:36:31;;;;;;;5.05;1.70;;;;;;;19.22;60.53;102000.13;5065897;28;20534;-63
2022/09/01 07:38:56;;;;;;;2.83;1.70;;;;;;;19.56;59.54;102001.47;5063737;28;20033;-63
2022/09/01 07:41:25;;;;;;;4.80;1.83;;;;;;;19.90;58.35;101998.34;5056789;28;20048;-63
2022/09/01 07:43:52;;;;;;;1.92;1.58;;;;;;;20.20;56.70;101995.19;5050435;28;20084;-63
2022/09/01 07:46:19;;;;;;;2.45;1.63;;;;;;;20.43;56.27;101997.16;5048946;28;20100;-63
2022/09/01 07:48:47;;;;;;;2.80;1.60;;;;;;;20.54;54.92;101999.88;5049201;28;20028;-63
2022/09/01 07:51:16;;;;;;;3.40;1.83;;;;;;;20.71;54.77;102000.00;5048414;28;20098;-63
2022/09/01 07:53:44;;;;;;;4.57;1.70;;;;;;;20.95;54.70;101999.38;5052438;28;20080;-62
2022/09/01 07:56:10;;;;;;;3.40;1.50;;;;;;;21.20;54.35;101996.00;5050027;28;20049;-63
2022/09/01 07:58:39;;;;;;;5.55;1.90;;;;;;;21.55;53.92;101997.91;5049680;28;20028;-63
2022/09/01 08:01:08;;;;;;;3.13;1.65;;;;;;;21.98;52.67;101999.00;5049314;28;20377;-62
2022/09/01 08:03:34;;;;;;;2.17;1.23;;;;;;;22.33;51.40;101996.38;5049291;28;20032;-63
2022/09/01 08:06:10;;;;;;;6.15;1.77;;;;;;;22.62;50.39;101998.16;5050236;28;20540;-63
2022/09/01 08:08:38;;;;;;;6.88;1.85;;;;;;;22.90;49.76;101998.19;5048613;28;20166;-62
2022/09/01 08:11:05;;;;;;;4.80;1.88;;;;;;;23.10;49.25;102005.16;5049245;28;20409;-62
2022/09/01 08:13:32;;;;;;;2.90;1.73;;;;;;;23.16;48.31;102005.16;5050398;28;20035;-63
2022/09/01 08:15:57;;;;;;;3.97;1.52;;;;;;;23.25;48.67;101999.84;5050214;28;20039;-63
2022/09/01 08:18:23;;;;;;;2.72;1.60;;;;;;;23.37;47.66;102003.31;5050226;28;20017;-63
2022/09/01 08:20:48;;;;;;;3.90;1.42;;;;;;;23.54;47.73;102005.06;5050301;28;20056;-63
2022/09/01 08:23:17;;;;;;;1.95;1.33;;;;;;;23.74;46.99;102000.59;5050606;28;20036;-62
2022/09/01 08:25:44;;;;;;;4.60;1.60;;;;;;;23.91;46.26;102006.66;5047174;28;20448;-63
2022/09/01 08:28:11;;;;;;;3.60;1.42;;;;;;;23.95;46.59;101996.03;5051734;28;20025;-62
2022/09/01 08:30:41;;;;;;;3.60;1.80;;;;;;;24.15;46.73;101995.03;5047394;28;20028;-63
2022/09/01 08:33:10;;;;;;;4.70;2.30;;;;;;;24.22;45.79;102002.06;5048787;28;20085;-63
2022/09/01 08:35:37;;;;;;;4.65;2.00;;;;;;;24.34;46.05;102003.75;5058658;28;20017;-62
2022/09/01 08:38:02;;;;;;;4.80;1.90;;;;;;;24.48;45.60;102004.53;5067949;28;20028;-64
2022/09/01 08:40:29;;;;;;;6.25;1.60;;;;;;;24.65;44.70;101993.78;5076076;28;20028;-62
2022/09/01 08:43:25;;;;;;;4.25;1.63;;;;;;;24.62;44.90;101997.34;5085586;28;20044;-62
2022/09/01 08:45:54;;;;;;;3.75;1.55;;;;;;;24.80;44.75;101998.94;5058631;28;20455;-63
2022/09/01 08:48:24;;;;;;;4.43;1.48;;;;;;;24.87;44.46;101996.22;5072566;28;20017;-60
2022/09/01 08:50:56;;;;;;;4.57;1.70;;;;;;;24.97;44.35;102002.34;5067907;28;20093;-61
2022/09/01 08:53:31;;;;;;;3.15;1.73;;;;;;;24.86;44.32;102000.63;5066927;28;20016;-61
2022/09/01 08:55:57;;;;;;;2.17;1.45;;;;;;;24.70;43.44;101995.50;5073863;28;20028;-60
2022/09/01 08:58:24;;;;;;;4.53;1.48;;;;;;;24.57;44.04;101999.16;5069517;28;20028;-61
2022/09/01 09:00:57;;;;;;;3.83;1.65;;;;;;;24.53;44.04;101992.13;5072773;28;20034;-60
2022/09/01 09:03:38;;;;;;;4.47;1.98;;;;;;;24.56;44.49;102000.03;5067418;28;20034;-60
2022/09/01 09:06:12;;;;;;;4.63;1.65;;;;;;;24.69;44.41;101985.81;5063828;28;20032;-61
2022/09/01 09:08:47;;;;;;;2.58;1.80;;;;;;;24.85;44.19;101990.94;5059342;28;20056;-61
2022/09/01 09:11:12;;;;;;;1.80;1.23;;;;;;;24.94;43.89;101993.53;5060592;28;20058;-61
2022/09/01 09:14:03;;;;;;;4.43;1.42;;;;;;;25.01;43.81;101982.84;5064485;28;20314;-61
2022/09/01 09:16:36;;;;;;;3.00;1.70;;;;;;;25.02;43.57;101989.94;5050364;28;20067;-61
2022/09/01 09:19:07;;;;;;;2.22;1.38;;;;;;;25.02;43.37;101989.94;5049282;28;20057;-59
2022/09/01 09:21:41;;;;;;;4.53;1.33;;;;;;;25.00;43.51;101989.06;5058361;28;20512;-61
2022/09/01 09:24:27;;;;;;;6.05;1.23;;;;;;;25.08;43.53;101984.53;5053527;28;20060;-61
2022/09/01 09:26:56;;;;;;;3.80;1.77;;;;;;;25.09;43.06;101983.66;5057419;28;20382;-60
2022/09/01 09:29:21;;;;;;;3.70;1.80;;;;;;;25.12;42.90;101980.97;5048982;28;20033;-60
2022/09/01 09:31:48;;;;;;;2.08;1.48;;;;;;;25.18;42.75;101980.88;5048727;28;20082;-60
2022/09/01 09:34:31;;;;;;;2.78;1.48;;;;;;;25.15;42.44;101977.44;5063286;28;20380;-60
2022/09/01 09:36:59;;;;;;;7.00;1.70;;;;;;;25.03;42.39;101979.31;5057634;28;20483;-60
2022/09/01 09:39:25;;;;;;;3.25;1.58;;;;;;;24.99;41.67;101974.06;5046060;28;20021;-61
2022/09/01 09:42:08;;;;;;;7.05;1.50;;;;;;;24.93;42.64;101977.66;5051077;28;20048;-60
2022/09/01 09:44:42;;;;;;;3.28;1.42;;;;;;;24.93;42.71;101965.25;5055761;28;20036;-61
2022/09/01 09:47:09;;;;;;;3.28;1.35;;;;;;;24.96;41.90;101960.81;5048777;28;20457;-60
2022/09/01 09:49:35;;;;;;;3.08;1.35;;;;;;;25.03;41.91;101955.44;5049758;28;20044;-60
2022/09/01 09:52:00;;;;;;;2.28;1.27;;;;;;;25.08;41.66;101950.09;5047467;28;20227;-60
2022/09/01 09:54:28;;;;;;;3.63;1.25;;;;;;;25.17;41.49;101952.63;5046509;28;20021;-60
2022/09/01 09:57:08;;;;;;;2.90;1.10;;;;;;;25.29;41.14;101946.28;5045383;28;20465;-60
2022/09/01 09:59:55;;;;;;;3.30;1.33;;;;;;;25.35;39.84;101944.44;5052555;28;20025;-61
2022/09/01 10:02:24;;;;;;;1.98;1.15;;;;;;;25.42;40.40;101941.72;5056773;28;20023;-61
2022/09/01 10:04:50;;;;;;;1.58;0.90;;;;;;;25.51;39.35;101951.31;5046985;28;20487;-60
2022/09/01 10:07:34;;;;;;;2.03;0.90;;;;;;;25.56;38.22;101953.03;5048119;28;20461;-61
2022/09/01 10:10:04;;;;;;;1.33;0.75;;;;;;;25.51;37.24;101945.13;5056716;28;20087;-60
2022/09/01 10:12:30;;;;;;;1.45;0.75;;;;;;;25.56;37.89;101948.63;5047235;28;20025;-61
2022/09/01 10:15:04;;;;;;;1.67;0.70;;;;;;;25.68;37.66;101941.41;5046838;28;20031;-60
2022/09/01 10:17:34;;;;;;;2.60;0.70;;;;;;;25.78;36.59;101943.00;5064240;28;20020;-60
2022/09/01 10:20:08;;;;;;;1.40;0.60;;;;;;;25.89;36.61;101943.75;5049348;28;20104;-61
2022/09/01 10:22:36;;;;;;;2.00;0.60;;;;;;;25.97;35.03;101942.75;5048818;28;20024;-60
2022/09/01 10:25:03;;;;;;;1.73;0.50;;;;;;;25.96;35.26;101930.38;5049347;28;20116;-61
2022/09/01 10:27:34;;;;;;;2.38;0.93;;;;;;;26.10;35.89;101938.97;5047669;28;20047;-61
2022/09/01 10:30:05;;;;;;;2.33;0.70;;;;;;;25.95;35.58;101939.22;5059925;28;20110;-61
2022/09/01 10:32:37;;;;;;;2.13;0.90;;;;;;;25.93;35.58;101935.72;5046419;28;20112;-61
2022/09/01 10:35:04;;;;;;;2.05;0.70;;;;;;;25.97;36.27;101940.09;5056501;28;20021;-61
2022/09/01 10:37:30;;;;;;;1.42;0.95;;;;;;;26.02;34.00;101932.94;5047985;28;20032;-61
2022/09/01 10:40:17;;;;;;;2.05;0.98;;;;;;;25.95;34.16;101931.25;5050375;28;20025;-61
2022/09/01 10:42:45;;;;;;;4.00;1.70;;;;;;;26.02;34.77;101936.47;5056119;28;20049;-61
2022/09/01 10:45:41;;;;;;;3.45;1.88;;;;;;;26.14;34.71;101929.19;5063508;28;20109;-61
2022/09/01 10:48:29;;;;;;;2.88;0.90;;;;;;;26.29;34.43;101933.38;5057202;28;20037;-61
2022/09/01 10:51:13;;;;;;;1.92;0.80;;;;;;;26.23;34.30;101929.03;5063738;28;20024;-61
2022/09/01 10:53:43;;;;;;;1.38;0.70;;;;;;;26.13;33.39;101925.66;5062835;28;20056;-61
2022/09/01 10:56:48;;;;;;;3.45;0.85;;;;;;;26.00;33.48;101926.75;5070740;28;20036;-61
2022/09/01 10:59:25;;;;;;;0.98;0.60;;;;;;;25.98;33.57;101936.50;5056753;28;20032;-61
2022/09/01 11:01:51;;;;;;;2.30;0.65;;;;;;;25.98;34.13;101928.56;5060116;28;20465;-61
2022/09/01 11:04:16;;;;;;;1.65;1.00;;;;;;;25.99;34.46;101927.66;5064638;28;20089;-61
2022/09/01 11:06:52;;;;;;;2.40;0.80;;;;;;;25.97;33.83;101924.16;5066879;28;20529;-63
2022/09/01 11:09:32;;;;;;;3.88;1.00;;;;;;;26.01;33.56;101929.38;5066923;28;20036;-63
2022/09/01 11:12:17;;;;;;;3.05;0.70;;;;;;;26.02;33.38;101914.34;5058785;28;20035;-63
2022/09/01 11:14:49;;;;;;;1.75;0.70;;;;;;;26.07;34.06;101914.25;5056241;28;20082;-63
2022/09/01 11:17:32;;;;;;;3.30;0.60;;;;;;;26.16;33.14;101913.25;5068643;28;20047;-63
2022/09/01 11:20:28;;;;;;;1.63;0.85;;;;;;;26.23;33.83;101914.88;5061657;28;20864;-63
2022/09/01 11:23:06;;;;;;;2.00;0.80;;;;;;;26.31;33.89;101915.63;5053016;28;20044;-64
2022/09/01 11:25:42;;;;;;;5.07;1.00;;;;;;;26.32;33.70;101921.84;5050557;28;20524;-63
2022/09/01 11:28:14;;;;;;;1.75;0.60;;;;;;;26.43;34.16;101911.00;5052641;28;20021;-63
2022/09/01 11:30:40;;;;;;;1.45;0.68;;;;;;;26.54;32.92;101905.50;5060426;28;20094;-64
2022/09/01 11:33:15;;;;;;;1.88;1.00;;;;;;;26.45;31.79;101907.44;5055801;28;20029;-63
2022/09/01 11:35:43;;;;;;;1.45;0.80;;;;;;;26.36;31.23;101900.50;5056267;28;20481;-64
2022/09/01 11:38:12;;;;;;;2.75;1.25;;;;;;;26.36;31.85;101903.16;5058787;28;20035;-63
2022/09/01 11:40:38;;;;;;;1.02;0.68;;;;;;;26.42;31.92;101893.34;5055177;28;20036;-63